sensor_id;sensor_type;location;lat;lon;timestamp;temperature;humidity
4052;DHT22;2040;50.924;11.604;2023-06-04T00:02:14;9.40;99.90
4052;DHT22;2040;50.924;11.604;2023-06-04T00:04:40;9.40;99.90
4052;DHT22;2040;50.924;11.604;2023-06-04T00:07:06;9.30;99.90
4052;DHT22;2040;50.924;11.604;2023-06-04T00:09:31;9.30;99.90
4052;DHT22;2040;50.924;11.604;2023-06-04T00:11:57;9.40;99.90
4052;DHT22;2040;50.924;11.604;2023-06-04T00:14:23;9.70;99.90
4052;DHT22;2040;50.924;11.604;2023-06-04T00:16:48;9.70;99.90
4052;DHT22;2040;50.924;11.604;2023-06-04T00:19:14;9.50;99.90
4052;DHT22;2040;50.924;11.604;2023-06-04T00:21:39;9.30;99.90
4052;DHT22;2040;50.924;11.604;2023-06-04T00:24:06;9.10;99.90
4052;DHT22;2040;50.924;11.604;2023-06-04T00:26:31;8.90;99.90
4052;DHT22;2040;50.924;11.604;2023-06-04T00:28:57;8.70;99.90
4052;DHT22;2040;50.924;11.604;2023-06-04T00:31:22;8.70;99.90
4052;DHT22;2040;50.924;11.604;2023-06-04T00:33:49;8.80;99.90
4052;DHT22;2040;50.924;11.604;2023-06-04T00:36:14;8.90;99.90
4052;DHT22;2040;50.924;11.604;2023-06-04T00:38:40;9.00;99.90
4052;DHT22;2040;50.924;11.604;2023-06-04T00:41:06;8.90;99.90
4052;DHT22;2040;50.924;11.604;2023-06-04T00:43:31;8.70;99.90
4052;DHT22;2040;50.924;11.604;2023-06-04T00:45:58;8.60;99.90
4052;DHT22;2040;50.924;11.604;2023-06-04T00:48:24;8.60;99.90
4052;DHT22;2040;50.924;11.604;2023-06-04T00:50:53;8.50;99.90
4052;DHT22;2040;50.924;11.604;2023-06-04T00:53:20;8.40;99.90
4052;DHT22;2040;50.924;11.604;2023-06-04T00:55:46;8.30;99.90
4052;DHT22;2040;50.924;11.604;2023-06-04T00:58:11;8.30;99.90
4052;DHT22;2040;50.924;11.604;2023-06-04T01:00:38;8.20;99.90
4052;DHT22;2040;50.924;11.604;2023-06-04T01:03:13;8.20;99.90
4052;DHT22;2040;50.924;11.604;2023-06-04T01:06:04;8.20;99.90
4052;DHT22;2040;50.924;11.604;2023-06-04T01:08:35;8.20;99.90
4052;DHT22;2040;50.924;11.604;2023-06-04T01:11:01;8.10;99.90
4052;DHT22;2040;50.924;11.604;2023-06-04T01:13:26;8.00;99.90
4052;DHT22;2040;50.924;11.604;2023-06-04T01:15:52;7.90;99.90
4052;DHT22;2040;50.924;11.604;2023-06-04T01:18:23;7.90;99.90
4052;DHT22;2040;50.924;11.604;2023-06-04T01:21:07;7.80;99.90
4052;DHT22;2040;50.924;11.604;2023-06-04T01:23:51;7.70;99.90
4052;DHT22;2040;50.924;11.604;2023-06-04T01:26:25;7.60;99.90
4052;DHT22;2040;50.924;11.604;2023-06-04T01:28:52;7.60;99.90
4052;DHT22;2040;50.924;11.604;2023-06-04T01:31:19;7.50;99.90
4052;DHT22;2040;50.924;11.604;2023-06-04T01:33:52;7.50;99.90
4052;DHT22;2040;50.924;11.604;2023-06-04T01:36:18;7.40;99.90
4052;DHT22;2040;50.924;11.604;2023-06-04T01:38:43;7.40;99.90
4052;DHT22;2040;50.924;11.604;2023-06-04T01:41:10;7.40;99.90
4052;DHT22;2040;50.924;11.604;2023-06-04T01:43:36;7.40;99.90
4052;DHT22;2040;50.924;11.604;2023-06-04T01:46:02;7.30;99.90
4052;DHT22;2040;50.924;11.604;2023-06-04T01:48:28;7.30;99.90
4052;DHT22;2040;50.924;11.604;2023-06-04T01:50:54;7.30;99.90
4052;DHT22;2040;50.924;11.604;2023-06-04T01:53:21;7.20;99.90
4052;DHT22;2040;50.924;11.604;2023-06-04T01:55:46;7.20;99.90
4052;DHT22;2040;50.924;11.604;2023-06-04T01:58:15;7.10;99.90
4052;DHT22;2040;50.924;11.604;2023-06-04T02:00:43;7.10;99.90
4052;DHT22;2040;50.924;11.604;2023-06-04T02:03:09;7.10;99.90
4052;DHT22;2040;50.924;11.604;2023-06-04T02:05:36;7.10;99.90
4052;DHT22;2040;50.924;11.604;2023-06-04T02:08:02;7.10;99.90
4052;DHT22;2040;50.924;11.604;2023-06-04T02:10:30;7.10;99.90
4052;DHT22;2040;50.924;11.604;2023-06-04T02:23:01;7.10;99.90
4052;DHT22;2040;50.924;11.604;2023-06-04T02:25:27;7.00;99.90
4052;DHT22;2040;50.924;11.604;2023-06-04T02:27:52;6.90;99.90
4052;DHT22;2040;50.924;11.604;2023-06-04T02:30:18;7.00;99.90
4052;DHT22;2040;50.924;11.604;2023-06-04T02:32:43;7.10;99.90
4052;DHT22;2040;50.924;11.604;2023-06-04T02:35:10;7.00;99.90
4052;DHT22;2040;50.924;11.604;2023-06-04T02:37:36;6.90;99.90
4052;DHT22;2040;50.924;11.604;2023-06-04T02:40:02;6.70;99.90
4052;DHT22;2040;50.924;11.604;2023-06-04T02:42:27;6.60;99.90
4052;DHT22;2040;50.924;11.604;2023-06-04T02:44:53;6.50;99.90
4052;DHT22;2040;50.924;11.604;2023-06-04T02:47:18;6.50;99.90
4052;DHT22;2040;50.924;11.604;2023-06-04T02:49:45;6.50;99.90
4052;DHT22;2040;50.924;11.604;2023-06-04T02:52:11;6.50;99.90
4052;DHT22;2040;50.924;11.604;2023-06-04T02:54:37;6.50;99.90
4052;DHT22;2040;50.924;11.604;2023-06-04T02:57:03;6.50;99.90
4052;DHT22;2040;50.924;11.604;2023-06-04T02:59:28;6.50;99.90
4052;DHT22;2040;50.924;11.604;2023-06-04T03:01:54;6.50;99.90
4052;DHT22;2040;50.924;11.604;2023-06-04T03:04:20;6.50;99.90
4052;DHT22;2040;50.924;11.604;2023-06-04T03:06:45;6.50;99.90
4052;DHT22;2040;50.924;11.604;2023-06-04T03:09:11;6.50;99.90
4052;DHT22;2040;50.924;11.604;2023-06-04T03:11:37;6.50;99.90
4052;DHT22;2040;50.924;11.604;2023-06-04T03:14:03;6.50;99.90
4052;DHT22;2040;50.924;11.604;2023-06-04T03:16:28;6.40;99.90
4052;DHT22;2040;50.924;11.604;2023-06-04T03:18:54;6.40;99.90
4052;DHT22;2040;50.924;11.604;2023-06-04T03:21:19;6.30;99.90
4052;DHT22;2040;50.924;11.604;2023-06-04T03:23:45;6.30;99.90
4052;DHT22;2040;50.924;11.604;2023-06-04T03:26:10;6.30;99.90
4052;DHT22;2040;50.924;11.604;2023-06-04T03:28:38;6.30;99.90
4052;DHT22;2040;50.924;11.604;2023-06-04T03:31:04;6.20;99.90
4052;DHT22;2040;50.924;11.604;2023-06-04T03:33:29;6.20;99.90
4052;DHT22;2040;50.924;11.604;2023-06-04T03:35:55;6.20;99.90
4052;DHT22;2040;50.924;11.604;2023-06-04T03:38:24;6.20;99.90
4052;DHT22;2040;50.924;11.604;2023-06-04T03:40:50;6.30;99.90
4052;DHT22;2040;50.924;11.604;2023-06-04T03:43:15;6.20;99.90
4052;DHT22;2040;50.924;11.604;2023-06-04T03:45:41;6.20;99.90
4052;DHT22;2040;50.924;11.604;2023-06-04T03:48:07;6.40;99.90
4052;DHT22;2040;50.924;11.604;2023-06-04T03:50:32;6.90;99.90
4052;DHT22;2040;50.924;11.604;2023-06-04T03:52:58;7.20;99.90
4052;DHT22;2040;50.924;11.604;2023-06-04T03:55:23;7.10;99.90
4052;DHT22;2040;50.924;11.604;2023-06-04T03:57:49;7.30;99.90
4052;DHT22;2040;50.924;11.604;2023-06-04T04:00:15;7.20;99.90
4052;DHT22;2040;50.924;11.604;2023-06-04T04:02:41;7.00;99.90
4052;DHT22;2040;50.924;11.604;2023-06-04T04:05:07;6.90;99.90
4052;DHT22;2040;50.924;11.604;2023-06-04T04:07:33;7.00;99.90
4052;DHT22;2040;50.924;11.604;2023-06-04T04:09:59;7.00;99.90
4052;DHT22;2040;50.924;11.604;2023-06-04T04:12:24;7.00;99.90
4052;DHT22;2040;50.924;11.604;2023-06-04T04:14:50;6.90;99.90
4052;DHT22;2040;50.924;11.604;2023-06-04T04:17:15;6.80;99.90
4052;DHT22;2040;50.924;11.604;2023-06-04T04:19:41;6.80;99.90
4052;DHT22;2040;50.924;11.604;2023-06-04T04:22:06;6.60;99.90
4052;DHT22;2040;50.924;11.604;2023-06-04T04:24:34;6.50;99.90
4052;DHT22;2040;50.924;11.604;2023-06-04T04:27:02;6.50;99.90
4052;DHT22;2040;50.924;11.604;2023-06-04T04:29:29;6.50;99.90
4052;DHT22;2040;50.924;11.604;2023-06-04T04:31:58;6.50;99.90
4052;DHT22;2040;50.924;11.604;2023-06-04T04:34:26;6.50;99.90
4052;DHT22;2040;50.924;11.604;2023-06-04T04:36:52;6.50;99.90
4052;DHT22;2040;50.924;11.604;2023-06-04T04:39:21;6.60;99.90
4052;DHT22;2040;50.924;11.604;2023-06-04T04:41:47;6.60;99.90
4052;DHT22;2040;50.924;11.604;2023-06-04T04:44:12;6.50;99.90
4052;DHT22;2040;50.924;11.604;2023-06-04T04:46:38;6.50;99.90
4052;DHT22;2040;50.924;11.604;2023-06-04T04:49:04;6.50;99.90
4052;DHT22;2040;50.924;11.604;2023-06-04T04:51:29;6.50;99.90
4052;DHT22;2040;50.924;11.604;2023-06-04T04:53:55;6.40;99.90
4052;DHT22;2040;50.924;11.604;2023-06-04T04:56:21;6.30;99.90
4052;DHT22;2040;50.924;11.604;2023-06-04T04:58:48;6.40;99.90
4052;DHT22;2040;50.924;11.604;2023-06-04T05:01:13;6.40;99.90
4052;DHT22;2040;50.924;11.604;2023-06-04T05:03:39;6.50;99.90
4052;DHT22;2040;50.924;11.604;2023-06-04T05:06:04;6.50;99.90
4052;DHT22;2040;50.924;11.604;2023-06-04T05:08:30;6.60;99.90
4052;DHT22;2040;50.924;11.604;2023-06-04T05:10:55;6.60;99.90
4052;DHT22;2040;50.924;11.604;2023-06-04T05:13:21;6.70;99.90
4052;DHT22;2040;50.924;11.604;2023-06-04T05:15:47;6.80;99.90
4052;DHT22;2040;50.924;11.604;2023-06-04T05:18:13;6.90;99.90
4052;DHT22;2040;50.924;11.604;2023-06-04T05:20:41;6.90;99.90
4052;DHT22;2040;50.924;11.604;2023-06-04T05:23:08;7.00;99.90
4052;DHT22;2040;50.924;11.604;2023-06-04T05:25:33;7.10;99.90
4052;DHT22;2040;50.924;11.604;2023-06-04T05:27:59;7.10;99.90
4052;DHT22;2040;50.924;11.604;2023-06-04T05:30:24;7.20;99.90
4052;DHT22;2040;50.924;11.604;2023-06-04T05:32:50;7.50;99.90
4052;DHT22;2040;50.924;11.604;2023-06-04T05:35:18;7.50;99.90
4052;DHT22;2040;50.924;11.604;2023-06-04T05:37:44;7.50;99.90
4052;DHT22;2040;50.924;11.604;2023-06-04T05:40:11;7.60;99.90
4052;DHT22;2040;50.924;11.604;2023-06-04T05:42:37;7.80;99.90
4052;DHT22;2040;50.924;11.604;2023-06-04T05:45:03;7.90;99.90
4052;DHT22;2040;50.924;11.604;2023-06-04T05:47:29;8.00;99.90
4052;DHT22;2040;50.924;11.604;2023-06-04T05:49:55;8.20;99.90
4052;DHT22;2040;50.924;11.604;2023-06-04T05:52:21;8.40;99.90
4052;DHT22;2040;50.924;11.604;2023-06-04T05:54:46;8.40;99.90
4052;DHT22;2040;50.924;11.604;2023-06-04T05:57:12;8.50;99.90
4052;DHT22;2040;50.924;11.604;2023-06-04T05:59:37;8.70;99.90
4052;DHT22;2040;50.924;11.604;2023-06-04T06:02:03;8.80;99.90
4052;DHT22;2040;50.924;11.604;2023-06-04T06:04:29;8.90;99.90
4052;DHT22;2040;50.924;11.604;2023-06-04T06:06:55;9.20;99.90
4052;DHT22;2040;50.924;11.604;2023-06-04T06:09:20;9.30;99.90
4052;DHT22;2040;50.924;11.604;2023-06-04T06:11:46;9.30;99.90
4052;DHT22;2040;50.924;11.604;2023-06-04T06:14:11;9.40;99.90
4052;DHT22;2040;50.924;11.604;2023-06-04T06:16:38;9.50;99.90
4052;DHT22;2040;50.924;11.604;2023-06-04T06:19:04;9.50;99.90
4052;DHT22;2040;50.924;11.604;2023-06-04T06:21:29;9.60;99.90
4052;DHT22;2040;50.924;11.604;2023-06-04T06:23:55;9.80;99.90
4052;DHT22;2040;50.924;11.604;2023-06-04T06:26:21;9.90;99.90
4052;DHT22;2040;50.924;11.604;2023-06-04T06:28:53;10.00;99.90
4052;DHT22;2040;50.924;11.604;2023-06-04T06:31:19;10.20;99.90
4052;DHT22;2040;50.924;11.604;2023-06-04T06:33:48;10.40;99.90
4052;DHT22;2040;50.924;11.604;2023-06-04T06:36:13;10.60;99.90
4052;DHT22;2040;50.924;11.604;2023-06-04T06:38:40;10.90;99.90
4052;DHT22;2040;50.924;11.604;2023-06-04T06:41:09;11.00;99.90
4052;DHT22;2040;50.924;11.604;2023-06-04T06:43:35;11.10;99.90
4052;DHT22;2040;50.924;11.604;2023-06-04T06:46:02;11.20;99.90
4052;DHT22;2040;50.924;11.604;2023-06-04T06:48:30;11.40;99.90
4052;DHT22;2040;50.924;11.604;2023-06-04T06:51:04;11.50;99.90
4052;DHT22;2040;50.924;11.604;2023-06-04T06:53:32;11.70;99.90
4052;DHT22;2040;50.924;11.604;2023-06-04T06:56:03;11.90;99.90
4052;DHT22;2040;50.924;11.604;2023-06-04T06:58:29;12.00;99.90
4052;DHT22;2040;50.924;11.604;2023-06-04T07:00:55;12.30;99.90
4052;DHT22;2040;50.924;11.604;2023-06-04T07:03:21;12.40;99.90
4052;DHT22;2040;50.924;11.604;2023-06-04T07:05:47;12.50;99.90
4052;DHT22;2040;50.924;11.604;2023-06-04T07:08:13;12.80;99.90
4052;DHT22;2040;50.924;11.604;2023-06-04T07:10:39;12.90;99.90
4052;DHT22;2040;50.924;11.604;2023-06-04T07:13:05;13.00;99.90
4052;DHT22;2040;50.924;11.604;2023-06-04T07:15:30;13.20;99.90
4052;DHT22;2040;50.924;11.604;2023-06-04T07:17:56;13.30;99.90
4052;DHT22;2040;50.924;11.604;2023-06-04T07:20:21;13.40;99.90
4052;DHT22;2040;50.924;11.604;2023-06-04T07:22:47;13.40;99.90
4052;DHT22;2040;50.924;11.604;2023-06-04T07:25:13;13.60;99.90
4052;DHT22;2040;50.924;11.604;2023-06-04T07:27:38;13.80;99.90
4052;DHT22;2040;50.924;11.604;2023-06-04T07:30:06;13.90;99.90
4052;DHT22;2040;50.924;11.604;2023-06-04T07:32:31;13.90;99.90
4052;DHT22;2040;50.924;11.604;2023-06-04T07:34:57;13.90;99.90
4052;DHT22;2040;50.924;11.604;2023-06-04T07:37:22;14.00;99.90
4052;DHT22;2040;50.924;11.604;2023-06-04T07:39:48;14.20;99.90
4052;DHT22;2040;50.924;11.604;2023-06-04T07:42:13;14.40;99.90
4052;DHT22;2040;50.924;11.604;2023-06-04T07:44:39;14.70;99.90
4052;DHT22;2040;50.924;11.604;2023-06-04T07:47:05;14.90;99.90
4052;DHT22;2040;50.924;11.604;2023-06-04T07:49:30;15.10;99.90
4052;DHT22;2040;50.924;11.604;2023-06-04T07:51:56;15.30;99.90
4052;DHT22;2040;50.924;11.604;2023-06-04T07:54:22;15.40;99.90
4052;DHT22;2040;50.924;11.604;2023-06-04T07:56:47;15.40;99.90
4052;DHT22;2040;50.924;11.604;2023-06-04T07:59:13;15.60;99.90
4052;DHT22;2040;50.924;11.604;2023-06-04T08:01:38;15.70;99.90
4052;DHT22;2040;50.924;11.604;2023-06-04T08:04:04;15.80;99.90
4052;DHT22;2040;50.924;11.604;2023-06-04T08:06:30;16.00;99.90
4052;DHT22;2040;50.924;11.604;2023-06-04T08:08:55;16.10;99.90
4052;DHT22;2040;50.924;11.604;2023-06-04T08:11:21;16.30;99.90
4052;DHT22;2040;50.924;11.604;2023-06-04T08:13:49;16.40;99.90
4052;DHT22;2040;50.924;11.604;2023-06-04T08:16:15;16.60;99.90
4052;DHT22;2040;50.924;11.604;2023-06-04T08:18:41;16.80;99.90
4052;DHT22;2040;50.924;11.604;2023-06-04T08:21:10;17.00;99.90
4052;DHT22;2040;50.924;11.604;2023-06-04T08:23:42;17.20;99.90
4052;DHT22;2040;50.924;11.604;2023-06-04T08:26:07;17.40;99.90
4052;DHT22;2040;50.924;11.604;2023-06-04T08:28:33;17.50;99.90
4052;DHT22;2040;50.924;11.604;2023-06-04T08:30:58;17.60;99.90
4052;DHT22;2040;50.924;11.604;2023-06-04T08:33:24;17.70;99.90
4052;DHT22;2040;50.924;11.604;2023-06-04T08:35:49;17.90;99.90
4052;DHT22;2040;50.924;11.604;2023-06-04T08:38:15;18.00;99.90
4052;DHT22;2040;50.924;11.604;2023-06-04T08:40:40;18.10;99.90
4052;DHT22;2040;50.924;11.604;2023-06-04T08:43:06;18.30;99.90
4052;DHT22;2040;50.924;11.604;2023-06-04T08:45:33;18.40;99.90
4052;DHT22;2040;50.924;11.604;2023-06-04T08:48:05;18.50;99.90
4052;DHT22;2040;50.924;11.604;2023-06-04T08:50:32;18.60;99.90
4052;DHT22;2040;50.924;11.604;2023-06-04T08:52:58;18.60;99.90
4052;DHT22;2040;50.924;11.604;2023-06-04T08:55:24;18.60;99.90
4052;DHT22;2040;50.924;11.604;2023-06-04T08:57:50;18.70;99.90
4052;DHT22;2040;50.924;11.604;2023-06-04T09:00:19;19.00;99.90
4052;DHT22;2040;50.924;11.604;2023-06-04T09:02:46;19.00;99.90
4052;DHT22;2040;50.924;11.604;2023-06-04T09:05:19;19.10;99.90
4052;DHT22;2040;50.924;11.604;2023-06-04T09:07:46;19.10;99.90
4052;DHT22;2040;50.924;11.604;2023-06-04T09:10:14;19.20;99.90
4052;DHT22;2040;50.924;11.604;2023-06-04T09:12:43;19.20;99.90
4052;DHT22;2040;50.924;11.604;2023-06-04T09:15:11;19.30;97.70
4052;DHT22;2040;50.924;11.604;2023-06-04T09:17:37;19.20;96.50
4052;DHT22;2040;50.924;11.604;2023-06-04T09:20:03;19.20;98.00
4052;DHT22;2040;50.924;11.604;2023-06-04T09:22:35;19.40;97.20
4052;DHT22;2040;50.924;11.604;2023-06-04T09:25:03;19.60;96.90
4052;DHT22;2040;50.924;11.604;2023-06-04T09:27:37;19.70;92.90
4052;DHT22;2040;50.924;11.604;2023-06-04T09:30:04;19.80;94.80
4052;DHT22;2040;50.924;11.604;2023-06-04T09:32:31;19.80;95.30
4052;DHT22;2040;50.924;11.604;2023-06-04T09:35:11;19.90;95.00
4052;DHT22;2040;50.924;11.604;2023-06-04T09:37:41;19.80;92.90
4052;DHT22;2040;50.924;11.604;2023-06-04T09:40:08;19.90;93.40
4052;DHT22;2040;50.924;11.604;2023-06-04T09:42:44;20.00;93.00
4052;DHT22;2040;50.924;11.604;2023-06-04T09:45:10;20.00;94.10
4052;DHT22;2040;50.924;11.604;2023-06-04T09:50:07;20.10;93.10
4052;DHT22;2040;50.924;11.604;2023-06-04T09:52:33;20.30;95.30
4052;DHT22;2040;50.924;11.604;2023-06-04T09:54:59;20.30;93.40
4052;DHT22;2040;50.924;11.604;2023-06-04T09:57:25;20.70;95.60
4052;DHT22;2040;50.924;11.604;2023-06-04T09:59:54;21.00;93.50
4052;DHT22;2040;50.924;11.604;2023-06-04T10:02:21;21.00;92.70
4052;DHT22;2040;50.924;11.604;2023-06-04T10:04:53;20.70;91.20
4052;DHT22;2040;50.924;11.604;2023-06-04T10:07:21;20.60;90.60
4052;DHT22;2040;50.924;11.604;2023-06-04T10:09:47;20.50;90.40
4052;DHT22;2040;50.924;11.604;2023-06-04T10:12:16;20.80;91.20
4052;DHT22;2040;50.924;11.604;2023-06-04T10:14:48;21.00;92.40
4052;DHT22;2040;50.924;11.604;2023-06-04T10:17:17;21.10;92.00
4052;DHT22;2040;50.924;11.604;2023-06-04T10:19:44;21.40;93.20
4052;DHT22;2040;50.924;11.604;2023-06-04T10:22:10;21.70;90.40
4052;DHT22;2040;50.924;11.604;2023-06-04T10:24:37;21.60;91.90
4052;DHT22;2040;50.924;11.604;2023-06-04T10:27:03;21.90;92.60
4052;DHT22;2040;50.924;11.604;2023-06-04T10:29:36;21.80;91.90
4052;DHT22;2040;50.924;11.604;2023-06-04T10:32:01;21.80;90.80
4052;DHT22;2040;50.924;11.604;2023-06-04T10:34:27;21.90;90.40
4052;DHT22;2040;50.924;11.604;2023-06-04T10:36:53;22.20;88.70
4052;DHT22;2040;50.924;11.604;2023-06-04T10:39:26;21.90;88.90
4052;DHT22;2040;50.924;11.604;2023-06-04T10:42:02;21.70;87.10
4052;DHT22;2040;50.924;11.604;2023-06-04T10:44:31;21.90;89.70
4052;DHT22;2040;50.924;11.604;2023-06-04T10:46:58;21.80;88.30
4052;DHT22;2040;50.924;11.604;2023-06-04T10:49:28;22.00;87.30
4052;DHT22;2040;50.924;11.604;2023-06-04T10:51:54;22.50;89.90
4052;DHT22;2040;50.924;11.604;2023-06-04T10:54:25;22.70;88.10
4052;DHT22;2040;50.924;11.604;2023-06-04T10:56:52;22.70;88.70
4052;DHT22;2040;50.924;11.604;2023-06-04T10:59:18;22.90;88.10
4052;DHT22;2040;50.924;11.604;2023-06-04T11:01:44;23.20;86.80
4052;DHT22;2040;50.924;11.604;2023-06-04T11:04:24;23.30;85.80
4052;DHT22;2040;50.924;11.604;2023-06-04T11:07:03;23.50;88.70
4052;DHT22;2040;50.924;11.604;2023-06-04T11:09:30;23.60;84.00
4052;DHT22;2040;50.924;11.604;2023-06-04T11:11:58;23.80;83.60
4052;DHT22;2040;50.924;11.604;2023-06-04T11:14:23;23.40;85.90
4052;DHT22;2040;50.924;11.604;2023-06-04T11:16:49;23.60;84.20
4052;DHT22;2040;50.924;11.604;2023-06-04T11:19:15;23.20;82.70
4052;DHT22;2040;50.924;11.604;2023-06-04T11:21:40;23.40;83.50
4052;DHT22;2040;50.924;11.604;2023-06-04T11:24:06;23.80;83.20
4052;DHT22;2040;50.924;11.604;2023-06-04T11:26:36;24.00;84.40
4052;DHT22;2040;50.924;11.604;2023-06-04T11:29:06;24.10;84.60
4052;DHT22;2040;50.924;11.604;2023-06-04T11:31:46;23.90;85.00
4052;DHT22;2040;50.924;11.604;2023-06-04T11:34:25;24.10;79.60
4052;DHT22;2040;50.924;11.604;2023-06-04T11:36:51;24.00;84.20
4052;DHT22;2040;50.924;11.604;2023-06-04T11:39:18;24.50;80.30
4052;DHT22;2040;50.924;11.604;2023-06-04T11:41:44;24.80;82.00
4052;DHT22;2040;50.924;11.604;2023-06-04T11:44:12;25.00;79.60
4052;DHT22;2040;50.924;11.604;2023-06-04T11:46:42;25.10;79.90
4052;DHT22;2040;50.924;11.604;2023-06-04T11:49:11;25.10;76.10
4052;DHT22;2040;50.924;11.604;2023-06-04T11:51:38;24.80;73.30
4052;DHT22;2040;50.924;11.604;2023-06-04T11:54:04;24.10;75.50
4052;DHT22;2040;50.924;11.604;2023-06-04T11:56:29;24.10;79.10
4052;DHT22;2040;50.924;11.604;2023-06-04T11:58:55;24.30;77.40
4052;DHT22;2040;50.924;11.604;2023-06-04T12:01:21;24.00;74.90
4052;DHT22;2040;50.924;11.604;2023-06-04T12:03:48;24.30;78.00
4052;DHT22;2040;50.924;11.604;2023-06-04T12:06:18;24.60;82.10
4052;DHT22;2040;50.924;11.604;2023-06-04T12:08:54;24.50;77.60
4052;DHT22;2040;50.924;11.604;2023-06-04T12:11:34;24.90;73.20
4052;DHT22;2040;50.924;11.604;2023-06-04T12:14:04;25.00;76.90
4052;DHT22;2040;50.924;11.604;2023-06-04T12:16:30;25.10;80.40
4052;DHT22;2040;50.924;11.604;2023-06-04T12:19:10;25.40;72.80
4052;DHT22;2040;50.924;11.604;2023-06-04T12:21:37;25.60;80.00
4052;DHT22;2040;50.924;11.604;2023-06-04T12:24:11;25.30;73.50
4052;DHT22;2040;50.924;11.604;2023-06-04T12:26:37;25.40;72.80
4052;DHT22;2040;50.924;11.604;2023-06-04T12:29:11;24.90;71.50
4052;DHT22;2040;50.924;11.604;2023-06-04T12:31:38;24.70;70.60
4052;DHT22;2040;50.924;11.604;2023-06-04T12:34:04;24.50;74.50
4052;DHT22;2040;50.924;11.604;2023-06-04T12:36:29;25.10;77.20
4052;DHT22;2040;50.924;11.604;2023-06-04T12:38:58;25.60;76.90
4052;DHT22;2040;50.924;11.604;2023-06-04T12:41:24;25.70;75.40
4052;DHT22;2040;50.924;11.604;2023-06-04T12:43:50;26.20;72.80
4052;DHT22;2040;50.924;11.604;2023-06-04T12:46:16;26.10;68.20
4052;DHT22;2040;50.924;11.604;2023-06-04T12:48:42;25.80;69.50
4052;DHT22;2040;50.924;11.604;2023-06-04T12:51:08;26.00;68.70
4052;DHT22;2040;50.924;11.604;2023-06-04T12:53:38;25.70;70.80
4052;DHT22;2040;50.924;11.604;2023-06-04T12:56:03;25.60;71.00
4052;DHT22;2040;50.924;11.604;2023-06-04T12:58:29;24.90;68.30
4052;DHT22;2040;50.924;11.604;2023-06-04T13:00:55;24.80;69.30
4052;DHT22;2040;50.924;11.604;2023-06-04T13:03:21;24.90;66.10
4052;DHT22;2040;50.924;11.604;2023-06-04T13:05:46;25.40;72.50
4052;DHT22;2040;50.924;11.604;2023-06-04T13:08:12;25.70;69.40
4052;DHT22;2040;50.924;11.604;2023-06-04T13:10:37;25.60;69.30
4052;DHT22;2040;50.924;11.604;2023-06-04T13:13:03;25.80;67.00
4052;DHT22;2040;50.924;11.604;2023-06-04T13:15:28;25.80;65.10
4052;DHT22;2040;50.924;11.604;2023-06-04T13:17:54;25.60;65.30
4052;DHT22;2040;50.924;11.604;2023-06-04T13:20:20;26.20;69.30
4052;DHT22;2040;50.924;11.604;2023-06-04T13:22:46;26.50;63.90
4052;DHT22;2040;50.924;11.604;2023-06-04T13:25:12;26.20;64.00
4052;DHT22;2040;50.924;11.604;2023-06-04T13:27:38;25.80;62.40
4052;DHT22;2040;50.924;11.604;2023-06-04T13:30:04;25.50;59.90
4052;DHT22;2040;50.924;11.604;2023-06-04T13:32:31;25.60;64.00
4052;DHT22;2040;50.924;11.604;2023-06-04T13:34:56;25.60;63.00
4052;DHT22;2040;50.924;11.604;2023-06-04T13:37:22;25.60;62.60
4052;DHT22;2040;50.924;11.604;2023-06-04T13:39:48;25.40;59.70
4052;DHT22;2040;50.924;11.604;2023-06-04T13:42:13;25.40;64.60
4052;DHT22;2040;50.924;11.604;2023-06-04T13:44:39;26.10;68.10
4052;DHT22;2040;50.924;11.604;2023-06-04T13:47:05;26.20;69.00
4052;DHT22;2040;50.924;11.604;2023-06-04T13:49:33;26.50;69.40
4052;DHT22;2040;50.924;11.604;2023-06-04T13:52:00;26.60;67.30
4052;DHT22;2040;50.924;11.604;2023-06-04T13:54:25;26.40;68.00
4052;DHT22;2040;50.924;11.604;2023-06-04T13:56:51;26.70;68.50
4052;DHT22;2040;50.924;11.604;2023-06-04T13:59:17;26.60;65.80
4052;DHT22;2040;50.924;11.604;2023-06-04T14:01:42;26.20;66.40
4052;DHT22;2040;50.924;11.604;2023-06-04T14:04:08;25.70;63.70
4052;DHT22;2040;50.924;11.604;2023-06-04T14:06:37;25.80;67.50
4052;DHT22;2040;50.924;11.604;2023-06-04T14:09:03;26.30;68.20
4052;DHT22;2040;50.924;11.604;2023-06-04T14:11:29;26.50;68.70
4052;DHT22;2040;50.924;11.604;2023-06-04T14:13:55;27.00;68.20
4052;DHT22;2040;50.924;11.604;2023-06-04T14:16:20;27.60;64.90
4052;DHT22;2040;50.924;11.604;2023-06-04T14:18:46;26.80;61.40
4052;DHT22;2040;50.924;11.604;2023-06-04T14:21:11;26.80;65.10
4052;DHT22;2040;50.924;11.604;2023-06-04T14:23:37;26.50;60.90
4052;DHT22;2040;50.924;11.604;2023-06-04T14:26:02;25.90;59.10
4052;DHT22;2040;50.924;11.604;2023-06-04T14:28:28;25.90;62.60
4052;DHT22;2040;50.924;11.604;2023-06-04T14:30:54;25.50;62.60
4052;DHT22;2040;50.924;11.604;2023-06-04T14:33:19;25.70;66.50
4052;DHT22;2040;50.924;11.604;2023-06-04T14:35:45;26.10;62.70
4052;DHT22;2040;50.924;11.604;2023-06-04T14:38:13;25.80;62.10
4052;DHT22;2040;50.924;11.604;2023-06-04T14:40:39;25.80;60.80
4052;DHT22;2040;50.924;11.604;2023-06-04T14:43:07;25.90;64.00
4052;DHT22;2040;50.924;11.604;2023-06-04T14:45:32;26.10;63.10
4052;DHT22;2040;50.924;11.604;2023-06-04T14:47:58;26.00;60.50
4052;DHT22;2040;50.924;11.604;2023-06-04T14:50:23;26.00;63.30
4052;DHT22;2040;50.924;11.604;2023-06-04T14:52:49;26.20;60.60
4052;DHT22;2040;50.924;11.604;2023-06-04T14:55:14;26.40;62.10
4052;DHT22;2040;50.924;11.604;2023-06-04T14:57:40;26.50;64.50
4052;DHT22;2040;50.924;11.604;2023-06-04T15:00:06;26.50;60.60
4052;DHT22;2040;50.924;11.604;2023-06-04T15:02:32;26.30;62.60
4052;DHT22;2040;50.924;11.604;2023-06-04T15:04:57;26.40;62.80
4052;DHT22;2040;50.924;11.604;2023-06-04T15:07:23;26.50;63.90
4052;DHT22;2040;50.924;11.604;2023-06-04T15:09:48;26.00;57.90
4052;DHT22;2040;50.924;11.604;2023-06-04T15:12:14;25.40;59.20
4052;DHT22;2040;50.924;11.604;2023-06-04T15:14:42;25.40;62.40
4052;DHT22;2040;50.924;11.604;2023-06-04T15:17:07;25.60;60.90
4052;DHT22;2040;50.924;11.604;2023-06-04T15:19:34;25.70;60.40
4052;DHT22;2040;50.924;11.604;2023-06-04T15:21:59;25.60;60.90
4052;DHT22;2040;50.924;11.604;2023-06-04T15:24:25;25.40;60.50
4052;DHT22;2040;50.924;11.604;2023-06-04T15:26:50;25.10;58.10
4052;DHT22;2040;50.924;11.604;2023-06-04T15:29:16;25.20;59.80
4052;DHT22;2040;50.924;11.604;2023-06-04T15:31:41;25.00;57.90
4052;DHT22;2040;50.924;11.604;2023-06-04T15:34:07;24.80;59.80
4052;DHT22;2040;50.924;11.604;2023-06-04T15:36:33;24.90;61.30
4052;DHT22;2040;50.924;11.604;2023-06-04T15:38:59;25.20;63.10
4052;DHT22;2040;50.924;11.604;2023-06-04T15:41:25;25.00;58.30
4052;DHT22;2040;50.924;11.604;2023-06-04T15:43:51;25.10;61.70
4052;DHT22;2040;50.924;11.604;2023-06-04T15:46:18;25.30;59.00
4052;DHT22;2040;50.924;11.604;2023-06-04T15:48:43;25.50;59.70
4052;DHT22;2040;50.924;11.604;2023-06-04T15:51:10;25.20;57.60
4052;DHT22;2040;50.924;11.604;2023-06-04T15:53:35;25.00;59.20
4052;DHT22;2040;50.924;11.604;2023-06-04T15:56:01;25.00;60.00
4052;DHT22;2040;50.924;11.604;2023-06-04T15:58:26;24.90;56.90
4052;DHT22;2040;50.924;11.604;2023-06-04T16:00:52;24.80;59.50
4052;DHT22;2040;50.924;11.604;2023-06-04T16:03:17;25.00;60.00